Time;durP1;ratioP1;P1;durP2;ratioP2;P2;SDS_P1;SDS_P2;PMS_P1;PMS_P2;Temp;Humidity;BMP_temperature;BMP_pressure;BME280_temperature;BME280_humidity;BME280_pressure;Samples;Min_cycle;Max_cycle;Signal;HPM_P1;HPM_P2
2023/10/10 00:00:28;;;;;;;1.75;1.65;;;;;;;;;;5117473;28;20209;-62
2023/10/10 00:02:58;;;;;;;2.38;1.90;;;;;;;;;;5117348;28;20345;-62
2023/10/10 00:05:36;;;;;;;2.22;1.90;;;;;;;;;;5117303;28;20214;-62
2023/10/10 00:08:05;;;;;;;2.25;2.00;;;;;;;;;;5117086;28;20264;-63
2023/10/10 00:10:34;;;;;;;1.70;1.60;;;;;;;;;;5116904;28;20203;-63
2023/10/10 00:13:03;;;;;;;1.73;1.52;;;;;;;;;;5117203;28;20209;-62
2023/10/10 00:15:38;;;;;;;2.17;2.00;;;;;;;;;;5117507;28;20203;-62
2023/10/10 00:18:11;;;;;;;2.20;1.52;;;;;;;;;;5117288;28;20270;-63
2023/10/10 00:20:44;;;;;;;1.80;1.70;;;;;;;;;;5117164;28;20246;-63
2023/10/10 00:23:15;;;;;;;1.60;1.50;;;;;;;;;;5117169;28;20234;-63
2023/10/10 00:25:47;;;;;;;3.88;1.88;;;;;;;;;;5117737;28;20293;-63
2023/10/10 00:28:20;;;;;;;1.90;1.80;;;;;;;;;;5121062;28;20224;-63
2023/10/10 00:30:49;;;;;;;2.28;2.08;;;;;;;;;;5121267;28;20202;-63
2023/10/10 00:33:20;;;;;;;2.17;1.75;;;;;;;;;;5121039;28;20199;-63
2023/10/10 00:35:47;;;;;;;3.25;1.80;;;;;;;;;;5120353;28;20241;-63
2023/10/10 00:38:24;;;;;;;1.73;1.63;;;;;;;;;;5120719;28;20202;-63
2023/10/10 00:40:51;;;;;;;1.98;1.77;;;;;;;;;;5120851;28;20203;-63
2023/10/10 00:43:22;;;;;;;2.00;1.90;;;;;;;;;;5120471;28;20242;-63
2023/10/10 00:45:53;;;;;;;1.80;1.70;;;;;;;;;;5120510;28;20238;-63
2023/10/10 00:48:29;;;;;;;1.70;1.60;;;;;;;;;;5120730;28;20214;-63
2023/10/10 00:51:05;;;;;;;1.67;1.58;;;;;;;;;;5120407;28;20203;-63
2023/10/10 00:53:35;;;;;;;1.80;1.70;;;;;;;;;;5120619;28;20199;-63
2023/10/10 00:56:05;;;;;;;2.13;2.00;;;;;;;;;;5120549;28;20285;-63
2023/10/10 00:58:37;;;;;;;2.13;1.77;;;;;;;;;;5120064;28;20203;-63
2023/10/10 01:01:09;;;;;;;1.70;1.52;;;;;;;;;;5119938;28;20496;-63
2023/10/10 01:03:41;;;;;;;1.67;1.58;;;;;;;;;;5119976;28;20251;-63
2023/10/10 01:06:14;;;;;;;2.10;1.90;;;;;;;;;;5120451;28;20217;-63
2023/10/10 01:08:57;;;;;;;2.08;1.75;;;;;;;;;;5120616;28;20203;-63
2023/10/10 01:11:25;;;;;;;2.30;1.50;;;;;;;;;;5120199;28;20199;-63
2023/10/10 01:13:53;;;;;;;1.92;1.80;;;;;;;;;;5120227;28;20568;-63
2023/10/10 01:16:24;;;;;;;1.65;1.55;;;;;;;;;;5120641;28;20335;-63
2023/10/10 01:18:57;;;;;;;1.85;1.75;;;;;;;;;;5120731;28;20211;-63
2023/10/10 01:21:36;;;;;;;1.85;1.75;;;;;;;;;;5120000;28;20214;-63
2023/10/10 01:24:07;;;;;;;1.83;1.73;;;;;;;;;;5120318;28;20627;-63
2023/10/10 01:26:38;;;;;;;1.90;1.80;;;;;;;;;;5120097;28;20234;-62
2023/10/10 01:29:25;;;;;;;2.08;1.80;;;;;;;;;;5120167;28;20239;-62
2023/10/10 01:31:53;;;;;;;1.60;1.50;;;;;;;;;;5119974;28;20209;-63
2023/10/10 01:34:43;;;;;;;2.00;1.80;;;;;;;;;;5119684;28;20202;-62
2023/10/10 01:37:20;;;;;;;2.33;2.00;;;;;;;;;;5119788;28;20202;-62
2023/10/10 01:39:55;;;;;;;1.80;1.70;;;;;;;;;;5120003;28;20494;-63
2023/10/10 01:42:31;;;;;;;2.10;1.90;;;;;;;;;;5119098;28;20579;-62
2023/10/10 01:45:02;;;;;;;1.70;1.60;;;;;;;;;;5120094;28;20301;-62
2023/10/10 01:47:34;;;;;;;1.73;1.63;;;;;;;;;;5119590;28;20214;-63
2023/10/10 01:50:07;;;;;;;1.83;1.73;;;;;;;;;;5119616;28;20210;-62
2023/10/10 01:52:38;;;;;;;1.80;1.70;;;;;;;;;;5119770;28;20199;-62
2023/10/10 01:55:10;;;;;;;1.77;1.67;;;;;;;;;;5119825;28;20210;-63
2023/10/10 01:57:37;;;;;;;1.77;1.67;;;;;;;;;;5119595;28;20584;-63
2023/10/10 02:00:19;;;;;;;1.70;1.60;;;;;;;;;;5119231;28;20211;-63
2023/10/10 02:02:49;;;;;;;1.50;1.40;;;;;;;;;;5119520;28;20223;-63
2023/10/10 02:05:29;;;;;;;1.90;1.60;;;;;;;;;;5119411;28;20288;-63
2023/10/10 02:07:58;;;;;;;2.05;1.50;;;;;;;;;;5119085;28;20561;-63
2023/10/10 02:10:29;;;;;;;1.83;1.73;;;;;;;;;;5118505;28;20643;-64
2023/10/10 02:12:59;;;;;;;1.92;1.75;;;;;;;;;;5119347;28;20250;-62
2023/10/10 02:15:27;;;;;;;1.75;1.65;;;;;;;;;;5119030;28;20246;-64
2023/10/10 02:17:56;;;;;;;1.88;1.73;;;;;;;;;;5119097;28;20206;-64
2023/10/10 02:23:34;;;;;;;1.88;1.75;;;;;;;;;;5136000;27;20546;-62
2023/10/10 02:26:14;;;;;;;1.70;1.60;;;;;;;;;;5135872;27;20300;-62
2023/10/10 02:28:47;;;;;;;1.73;1.45;;;;;;;;;;5136672;27;20198;-62
2023/10/10 02:31:16;;;;;;;2.00;1.85;;;;;;;;;;5135874;27;20225;-62
2023/10/10 02:33:55;;;;;;;2.20;1.70;;;;;;;;;;5136206;27;20600;-62
2023/10/10 02:36:31;;;;;;;1.92;1.83;;;;;;;;;;5136179;27;20202;-62
2023/10/10 02:39:18;;;;;;;1.75;1.65;;;;;;;;;;5135840;27;20205;-62
2023/10/10 02:41:50;;;;;;;1.80;1.70;;;;;;;;;;5135287;27;20510;-63
2023/10/10 02:44:38;;;;;;;2.03;1.90;;;;;;;;;;5135608;27;20294;-62
2023/10/10 02:47:07;;;;;;;1.65;1.55;;;;;;;;;;5135542;27;20296;-63
2023/10/10 02:49:37;;;;;;;1.90;1.80;;;;;;;;;;5135646;27;20207;-63
2023/10/10 02:52:07;;;;;;;2.50;2.30;;;;;;;;;;5135950;27;20285;-63
2023/10/10 02:54:43;;;;;;;1.70;1.60;;;;;;;;;;5135165;27;20289;-63
2023/10/10 02:57:31;;;;;;;1.70;1.60;;;;;;;;;;5135659;27;20202;-64
2023/10/10 03:00:15;;;;;;;2.50;2.05;;;;;;;;;;5135463;27;20549;-64
2023/10/10 03:02:49;;;;;;;2.58;1.90;;;;;;;;;;5135605;27;20218;-63
2023/10/10 03:05:20;;;;;;;1.80;1.70;;;;;;;;;;5135558;27;20206;-63
2023/10/10 03:07:52;;;;;;;1.75;1.65;;;;;;;;;;5135520;27;20263;-63
2023/10/10 03:10:37;;;;;;;2.10;1.90;;;;;;;;;;5135230;27;20201;-63
2023/10/10 03:13:13;;;;;;;1.70;1.60;;;;;;;;;;5135261;27;20297;-63
2023/10/10 03:15:51;;;;;;;1.83;1.70;;;;;;;;;;5135150;27;20206;-62
2023/10/10 03:18:28;;;;;;;2.03;1.70;;;;;;;;;;5134983;27;20267;-62
2023/10/10 03:21:18;;;;;;;2.00;1.80;;;;;;;;;;5135126;27;20213;-62
2023/10/10 03:23:56;;;;;;;1.80;1.70;;;;;;;;;;5135072;27;20575;-63
2023/10/10 03:26:52;;;;;;;1.73;1.63;;;;;;;;;;5134467;27;20586;-63
2023/10/10 03:29:36;;;;;;;1.65;1.55;;;;;;;;;;5133883;27;20550;-62
2023/10/10 03:32:22;;;;;;;1.88;1.77;;;;;;;;;;5134942;27;20198;-62
2023/10/10 03:34:57;;;;;;;1.88;1.77;;;;;;;;;;5121683;27;20263;-63
2023/10/10 03:40:21;;;;;;;1.90;1.80;;;;;;;;;;5120058;28;20788;-63
2023/10/10 05:25:28;;;;;;;2.40;1.92;;;;;;;;;;5138451;27;20498;-62
2023/10/10 05:27:58;;;;;;;1.85;1.75;;;;;;;;;;5137940;27;20241;-62
2023/10/10 05:30:27;;;;;;;2.20;2.00;;;;;;;;;;5137936;27;20206;-62
2023/10/10 05:33:02;;;;;;;2.30;1.88;;;;;;;;;;5138011;27;20229;-62
2023/10/10 05:35:29;;;;;;;2.17;2.08;;;;;;;;;;5137916;27;20201;-62
2023/10/10 05:38:00;;;;;;;2.30;2.10;;;;;;;;;;5137095;27;20595;-63
2023/10/10 05:40:28;;;;;;;2.40;2.20;;;;;;;;;;5137450;27;20680;-62
2023/10/10 05:42:58;;;;;;;2.50;1.92;;;;;;;;;;5137789;27;20218;-62
2023/10/10 05:45:26;;;;;;;1.90;1.80;;;;;;;;;;5137816;27;20237;-63
2023/10/10 05:47:53;;;;;;;2.30;2.10;;;;;;;;;;5137426;27;20461;-63
2023/10/10 05:50:22;;;;;;;2.25;2.05;;;;;;;;;;5137301;27;20210;-63
2023/10/10 05:52:49;;;;;;;1.92;1.83;;;;;;;;;;5137219;27;20293;-63
2023/10/10 05:55:19;;;;;;;2.40;2.00;;;;;;;;;;5137509;27;20202;-63
2023/10/10 05:57:47;;;;;;;2.40;2.20;;;;;;;;;;5136966;27;20209;-63
2023/10/10 06:00:14;;;;;;;1.90;1.80;;;;;;;;;;5137409;27;20826;-63
2023/10/10 06:02:43;;;;;;;1.95;1.85;;;;;;;;;;5137162;27;20226;-62
2023/10/10 06:05:12;;;;;;;2.05;1.85;;;;;;;;;;5137384;27;20561;-62
2023/10/10 06:07:42;;;;;;;2.05;1.88;;;;;;;;;;5137488;27;20208;-62
2023/10/10 06:10:15;;;;;;;2.10;1.90;;;;;;;;;;5137548;27;20276;-62
2023/10/10 06:12:45;;;;;;;2.70;1.83;;;;;;;;;;5137528;27;20585;-63
2023/10/10 06:15:13;;;;;;;1.85;1.75;;;;;;;;;;5137439;27;20293;-63
2023/10/10 06:17:40;;;;;;;2.88;2.28;;;;;;;;;;5136796;27;20237;-62
2023/10/10 06:20:08;;;;;;;2.10;1.90;;;;;;;;;;5137059;27;20238;-62
2023/10/10 06:22:37;;;;;;;1.95;1.80;;;;;;;;;;5136457;27;20325;-62
2023/10/10 06:25:05;;;;;;;2.10;1.85;;;;;;;;;;5136528;27;20235;-63
2023/10/10 06:27:36;;;;;;;2.15;2.05;;;;;;;;;;5136141;27;20202;-63
2023/10/10 06:30:06;;;;;;;1.92;1.83;;;;;;;;;;5136532;27;20213;-62
2023/10/10 06:32:35;;;;;;;1.90;1.80;;;;;;;;;;5136643;27;20206;-62
2023/10/10 06:35:25;;;;;;;2.22;2.03;;;;;;;;;;5136722;27;20262;-63
2023/10/10 06:37:53;;;;;;;1.90;1.80;;;;;;;;;;5136335;27;20594;-62
2023/10/10 06:40:25;;;;;;;1.80;1.70;;;;;;;;;;5135704;27;20220;-63
2023/10/10 06:42:55;;;;;;;2.10;1.90;;;;;;;;;;5135637;28;20766;-63
2023/10/10 06:45:26;;;;;;;2.58;1.77;;;;;;;;;;5137072;27;20298;-62
2023/10/10 06:47:54;;;;;;;2.35;2.13;;;;;;;;;;5136587;27;20529;-62
2023/10/10 06:50:22;;;;;;;1.85;1.73;;;;;;;;;;5136992;27;20208;-62
2023/10/10 06:52:52;;;;;;;2.22;2.03;;;;;;;;;;5136085;27;20259;-62
2023/10/10 06:55:23;;;;;;;1.98;1.88;;;;;;;;;;5136226;28;20202;-63
2023/10/10 06:57:59;;;;;;;3.03;1.95;;;;;;;;;;5135759;27;20570;-63
2023/10/10 07:00:42;;;;;;;2.00;1.75;;;;;;;;;;5135809;27;20204;-62
2023/10/10 07:03:09;;;;;;;2.17;1.98;;;;;;;;;;5136281;28;20218;-62
2023/10/10 07:05:39;;;;;;;1.90;1.80;;;;;;;;;;5135744;27;20213;-62
2023/10/10 07:08:24;;;;;;;1.83;1.73;;;;;;;;;;5136838;27;20203;-63
2023/10/10 07:10:53;;;;;;;2.00;1.67;;;;;;;;;;5140690;27;20203;-63
2023/10/10 07:13:29;;;;;;;1.88;1.67;;;;;;;;;;5140274;27;20202;-62
2023/10/10 07:15:58;;;;;;;2.33;1.85;;;;;;;;;;5139749;27;20639;-62
2023/10/10 07:18:26;;;;;;;1.90;1.80;;;;;;;;;;5139981;27;20199;-62
2023/10/10 07:21:08;;;;;;;1.92;1.75;;;;;;;;;;5139716;27;20202;-62
2023/10/10 07:23:39;;;;;;;1.85;1.75;;;;;;;;;;5119084;28;20223;-62
2023/10/10 07:26:07;;;;;;;1.88;1.77;;;;;;;;;;5119675;28;20264;-63
2023/10/10 07:28:48;;;;;;;2.13;1.88;;;;;;;;;;5119763;28;20199;-63
2023/10/10 07:31:21;;;;;;;2.40;1.80;;;;;;;;;;5118427;28;20309;-63
2023/10/10 07:33:55;;;;;;;2.53;1.90;;;;;;;;;;5118573;28;20638;-63
2023/10/10 07:36:26;;;;;;;2.03;1.88;;;;;;;;;;5118681;28;20199;-63
2023/10/10 07:39:27;;;;;;;1.98;1.77;;;;;;;;;;5118809;28;20225;-63
2023/10/10 07:41:45;;;;;;;1.98;1.88;;;;;;;;;;5117743;28;20214;-62
2023/10/10 07:44:16;;;;;;;1.80;1.70;;;;;;;;;;5118395;28;20225;-62
2023/10/10 07:47:19;;;;;;;2.05;1.92;;;;;;;;;;5118305;28;20199;-62
2023/10/10 07:49:33;;;;;;;3.15;2.00;;;;;;;;;;5118668;28;20297;-63
2023/10/10 07:52:02;;;;;;;1.88;1.70;;;;;;;;;;5118265;28;20570;-63
2023/10/10 07:54:38;;;;;;;1.63;1.52;;;;;;;;;;5118146;28;20195;-63
2023/10/10 07:57:07;;;;;;;1.88;1.70;;;;;;;;;;5118329;28;20521;-63
2023/10/10 07:59:36;;;;;;;1.80;1.70;;;;;;;;;;5118345;28;20210;-63
2023/10/10 08:02:20;;;;;;;2.05;1.70;;;;;;;;;;5118357;28;20211;-63
2023/10/10 08:04:50;;;;;;;1.75;1.65;;;;;;;;;;5119074;28;20470;-63
2023/10/10 08:07:18;;;;;;;1.77;1.67;;;;;;;;;;5118283;28;20201;-63
2023/10/10 08:09:47;;;;;;;1.88;1.77;;;;;;;;;;5118853;28;20306;-63
2023/10/10 08:12:14;;;;;;;2.25;1.98;;;;;;;;;;5118197;28;20211;-63
2023/10/10 08:14:42;;;;;;;1.90;1.80;;;;;;;;;;5118196;28;20562;-63
2023/10/10 08:17:21;;;;;;;2.05;1.90;;;;;;;;;;5116944;28;20206;-63
2023/10/10 08:19:52;;;;;;;1.70;1.60;;;;;;;;;;5099186;28;20214;-63
2023/10/10 08:22:25;;;;;;;2.10;1.80;;;;;;;;;;5127978;27;20234;-62
2023/10/10 08:24:53;;;;;;;1.60;1.50;;;;;;;;;;5138118;27;20208;-62
2023/10/10 08:27:22;;;;;;;2.30;1.67;;;;;;;;;;5137957;27;20213;-62
2023/10/10 08:29:50;;;;;;;1.73;1.63;;;;;;;;;;5137762;27;20202;-62
2023/10/10 08:32:19;;;;;;;2.08;1.80;;;;;;;;;;5138064;27;20213;-62
2023/10/10 08:34:47;;;;;;;1.92;1.73;;;;;;;;;;5138128;27;20206;-63
2023/10/10 08:37:15;;;;;;;2.10;1.88;;;;;;;;;;5138147;27;20202;-62
2023/10/10 08:39:42;;;;;;;2.08;1.80;;;;;;;;;;5137677;27;20210;-62
2023/10/10 08:42:14;;;;;;;1.88;1.77;;;;;;;;;;5138156;27;20213;-62
2023/10/10 08:44:42;;;;;;;2.40;2.20;;;;;;;;;;5137654;27;20214;-62
2023/10/10 08:47:16;;;;;;;2.70;2.47;;;;;;;;;;5136634;27;20605;-62
2023/10/10 08:49:47;;;;;;;2.20;2.00;;;;;;;;;;5137150;27;20297;-62
2023/10/10 08:52:17;;;;;;;2.40;2.20;;;;;;;;;;5137882;27;20578;-62
2023/10/10 08:54:45;;;;;;;3.10;2.20;;;;;;;;;;5137230;27;20206;-62
2023/10/10 08:57:21;;;;;;;2.40;2.20;;;;;;;;;;5138155;27;20647;-62
2023/10/10 08:59:52;;;;;;;2.20;2.00;;;;;;;;;;5137532;27;20201;-62
2023/10/10 09:02:20;;;;;;;2.40;2.10;;;;;;;;;;5137158;27;20194;-62
2023/10/10 09:04:50;;;;;;;2.40;2.20;;;;;;;;;;5136678;27;20663;-62
2023/10/10 09:07:23;;;;;;;2.15;1.95;;;;;;;;;;5137804;27;20475;-62
2023/10/10 09:10:04;;;;;;;2.30;2.10;;;;;;;;;;5137481;27;20232;-63
2023/10/10 09:12:34;;;;;;;2.30;2.10;;;;;;;;;;5137800;27;20281;-63
2023/10/10 09:15:16;;;;;;;2.50;2.30;;;;;;;;;;5136962;27;20632;-63
2023/10/10 09:17:45;;;;;;;2.42;2.22;;;;;;;;;;5136573;27;20301;-63
2023/10/10 09:20:24;;;;;;;3.13;2.88;;;;;;;;;;5137180;27;20206;-63
2023/10/10 09:22:52;;;;;;;3.22;2.92;;;;;;;;;;5136543;27;20640;-63
2023/10/10 09:25:23;;;;;;;3.45;3.10;;;;;;;;;;5136496;27;20213;-63
2023/10/10 09:28:11;;;;;;;3.33;2.97;;;;;;;;;;5136567;27;20203;-63
2023/10/10 09:30:45;;;;;;;3.50;2.95;;;;;;;;;;5137304;27;20293;-63
2023/10/10 09:33:22;;;;;;;3.22;2.80;;;;;;;;;;5136634;27;20258;-63
2023/10/10 09:35:54;;;;;;;3.08;2.80;;;;;;;;;;5136233;27;20202;-63
2023/10/10 09:38:26;;;;;;;2.83;2.63;;;;;;;;;;5136403;27;20206;-63
2023/10/10 09:41:10;;;;;;;3.63;3.33;;;;;;;;;;5136345;27;20202;-63
2023/10/10 09:43:49;;;;;;;3.20;2.90;;;;;;;;;;5136678;27;20218;-63
2023/10/10 09:46:23;;;;;;;3.67;3.38;;;;;;;;;;5136397;27;20209;-63
2023/10/10 09:54:26;;;;;;;3.42;3.13;;;;;;;;;;5136120;27;20567;-63
2023/10/10 09:56:56;;;;;;;3.63;3.33;;;;;;;;;;5135725;27;20205;-63
2023/10/10 09:59:28;;;;;;;3.40;3.10;;;;;;;;;;5135850;27;20202;-63
2023/10/10 10:02:04;;;;;;;3.60;3.30;;;;;;;;;;5135440;27;20241;-63
2023/10/10 10:04:38;;;;;;;3.08;2.83;;;;;;;;;;5135809;27;20222;-63
2023/10/10 10:07:14;;;;;;;3.28;2.97;;;;;;;;;;5136408;27;20210;-63
2023/10/10 10:09:59;;;;;;;3.30;3.00;;;;;;;;;;5135837;27;20201;-63
2023/10/10 10:12:41;;;;;;;3.50;3.20;;;;;;;;;;5135285;27;20228;-63
2023/10/10 10:15:15;;;;;;;4.13;3.75;;;;;;;;;;5134871;27;20194;-63
2023/10/10 10:17:53;;;;;;;4.32;3.92;;;;;;;;;;5134794;27;20577;-63
2023/10/10 10:20:25;;;;;;;3.60;3.30;;;;;;;;;;5135464;27;20202;-62
2023/10/10 10:22:54;;;;;;;3.65;3.35;;;;;;;;;;5134651;28;20230;-62
2023/10/10 10:25:28;;;;;;;3.42;3.13;;;;;;;;;;5135486;28;20287;-62
2023/10/10 10:28:10;;;;;;;3.70;3.40;;;;;;;;;;5135326;28;20205;-62
2023/10/10 10:30:50;;;;;;;3.97;3.30;;;;;;;;;;5135441;28;20202;-62
2023/10/10 10:33:20;;;;;;;3.53;3.22;;;;;;;;;;5126767;28;20214;-62
2023/10/10 10:36:16;;;;;;;5.03;3.58;;;;;;;;;;5135729;28;20569;-62
2023/10/10 10:41:51;;;;;;;3.42;3.13;;;;;;;;;;5119844;28;20205;-64
2023/10/10 10:44:29;;;;;;;3.53;3.22;;;;;;;;;;5137802;27;20226;-63
2023/10/10 10:46:58;;;;;;;3.50;3.20;;;;;;;;;;5139470;27;20266;-63
2023/10/10 10:49:32;;;;;;;3.55;3.25;;;;;;;;;;5139161;27;20194;-63
2023/10/10 10:52:17;;;;;;;3.92;3.42;;;;;;;;;;5140465;27;20241;-62
2023/10/10 10:55:00;;;;;;;3.45;3.15;;;;;;;;;;5139536;27;20194;-62
2023/10/10 10:57:27;;;;;;;3.50;3.20;;;;;;;;;;5139665;27;20614;-62
2023/10/10 10:59:57;;;;;;;2.83;2.63;;;;;;;;;;5139542;27;20252;-64
2023/10/10 11:02:32;;;;;;;3.50;3.20;;;;;;;;;;5139799;27;20209;-62
2023/10/10 11:05:00;;;;;;;3.40;3.10;;;;;;;;;;5138640;27;20229;-64
2023/10/10 11:07:41;;;;;;;3.78;3.42;;;;;;;;;;5139009;27;20202;-63
2023/10/10 11:10:11;;;;;;;3.55;3.25;;;;;;;;;;5138852;27;20537;-63
2023/10/10 11:12:39;;;;;;;3.47;3.15;;;;;;;;;;5139094;27;20213;-62
2023/10/10 11:15:10;;;;;;;3.83;3.53;;;;;;;;;;5139282;27;20199;-64
2023/10/10 11:17:42;;;;;;;3.78;3.47;;;;;;;;;;5138903;27;20195;-64
2023/10/10 11:23:11;;;;;;;3.72;3.35;;;;;;;;;;5133326;27;20283;-63
2023/10/10 11:25:46;;;;;;;3.70;3.40;;;;;;;;;;5138852;27;20256;-62
2023/10/10 11:28:21;;;;;;;3.80;3.50;;;;;;;;;;5139317;27;20209;-64
2023/10/10 11:30:50;;;;;;;3.90;3.60;;;;;;;;;;5138332;27;20205;-63
2023/10/10 11:33:46;;;;;;;3.65;3.35;;;;;;;;;;5138150;27;20210;-63
2023/10/10 11:36:29;;;;;;;3.70;3.40;;;;;;;;;;5138352;27;20198;-64
2023/10/10 11:39:16;;;;;;;3.58;3.28;;;;;;;;;;5138208;27;20285;-63
2023/10/10 11:41:46;;;;;;;4.03;3.70;;;;;;;;;;5138003;27;20263;-62
2023/10/10 11:44:18;;;;;;;3.65;3.35;;;;;;;;;;5138375;27;20226;-62
2023/10/10 11:46:48;;;;;;;3.83;3.40;;;;;;;;;;5138393;27;20205;-63
2023/10/10 11:49:16;;;;;;;3.92;3.53;;;;;;;;;;5137375;27;20231;-62
2023/10/10 11:51:44;;;;;;;3.72;3.42;;;;;;;;;;5138480;27;20209;-62
2023/10/10 11:54:11;;;;;;;3.95;3.65;;;;;;;;;;5137970;27;20542;-62
2023/10/10 11:56:39;;;;;;;3.70;3.40;;;;;;;;;;5138441;27;20203;-62
2023/10/10 11:59:10;;;;;;;4.03;3.65;;;;;;;;;;5139020;27;20488;-62
2023/10/10 12:01:54;;;;;;;3.65;3.35;;;;;;;;;;5137942;27;20241;-62
2023/10/10 12:04:30;;;;;;;4.38;3.40;;;;;;;;;;5137123;27;20226;-64
2023/10/10 12:07:02;;;;;;;3.60;3.30;;;;;;;;;;5137395;27;20577;-63
2023/10/10 12:09:30;;;;;;;4.05;3.75;;;;;;;;;;5136984;27;20665;-63
2023/10/10 12:12:03;;;;;;;3.88;3.58;;;;;;;;;;5138343;27;20206;-62
2023/10/10 12:14:32;;;;;;;4.35;3.60;;;;;;;;;;5138121;27;20198;-62
2023/10/10 12:17:05;;;;;;;5.13;3.72;;;;;;;;;;5136979;27;20202;-63
2023/10/10 12:19:36;;;;;;;3.30;3.00;;;;;;;;;;5136729;27;20628;-62
2023/10/10 12:22:07;;;;;;;4.10;3.70;;;;;;;;;;5137079;27;20534;-62
2023/10/10 12:24:35;;;;;;;3.75;3.45;;;;;;;;;;5137568;27;20226;-62
2023/10/10 12:27:07;;;;;;;3.95;3.53;;;;;;;;;;5137595;27;20221;-63
2023/10/10 12:29:39;;;;;;;4.18;3.63;;;;;;;;;;5137943;27;20693;-64
2023/10/10 12:32:15;;;;;;;3.83;3.42;;;;;;;;;;5137390;27;20203;-63
2023/10/10 12:34:45;;;;;;;4.03;3.63;;;;;;;;;;5137005;27;20226;-63
2023/10/10 12:37:15;;;;;;;4.47;4.00;;;;;;;;;;5136617;27;20206;-63
2023/10/10 12:39:43;;;;;;;4.35;4.00;;;;;;;;;;5136865;27;20210;-62
2023/10/10 12:42:11;;;;;;;4.35;3.95;;;;;;;;;;5136393;27;20301;-62
2023/10/10 12:44:47;;;;;;;5.50;4.50;;;;;;;;;;5136096;27;20222;-62
2023/10/10 12:47:17;;;;;;;4.05;3.67;;;;;;;;;;5136686;27;20241;-62
2023/10/10 12:49:45;;;;;;;4.38;3.95;;;;;;;;;;5136566;27;20208;-62
2023/10/10 12:52:17;;;;;;;4.75;4.28;;;;;;;;;;5128136;27;20199;-62
2023/10/10 12:54:46;;;;;;;4.80;4.20;;;;;;;;;;5101747;28;20214;-63
2023/10/10 12:57:14;;;;;;;4.35;3.97;;;;;;;;;;5094589;28;20342;-63
2023/10/10 12:59:46;;;;;;;4.60;4.20;;;;;;;;;;5095016;28;20218;-63
2023/10/10 13:02:16;;;;;;;4.82;4.32;;;;;;;;;;5094522;28;20273;-64
2023/10/10 13:04:46;;;;;;;4.50;4.10;;;;;;;;;;5094618;28;20807;-62
2023/10/10 13:07:16;;;;;;;5.97;4.68;;;;;;;;;;5094224;28;20211;-62
2023/10/10 13:09:46;;;;;;;5.85;4.38;;;;;;;;;;5095136;28;20531;-62
2023/10/10 13:12:32;;;;;;;4.68;4.28;;;;;;;;;;5103774;28;20459;-64
2023/10/10 13:15:17;;;;;;;4.70;3.97;;;;;;;;;;5115804;28;20206;-64
2023/10/10 13:18:08;;;;;;;4.50;4.10;;;;;;;;;;5115615;28;20218;-64
2023/10/10 13:20:36;;;;;;;5.03;4.50;;;;;;;;;;5115908;28;20227;-62
2023/10/10 13:23:06;;;;;;;5.03;4.50;;;;;;;;;;5115822;28;20246;-62
2023/10/10 13:25:37;;;;;;;4.60;4.20;;;;;;;;;;5114143;28;20218;-62
2023/10/10 13:28:09;;;;;;;4.68;4.18;;;;;;;;;;5115612;28;20309;-62
2023/10/10 13:30:39;;;;;;;5.00;4.25;;;;;;;;;;5115440;28;20617;-63
2023/10/10 13:33:07;;;;;;;4.63;4.20;;;;;;;;;;5115290;28;20293;-63
2023/10/10 13:35:37;;;;;;;4.60;4.20;;;;;;;;;;5114660;28;20233;-64
2023/10/10 13:38:05;;;;;;;4.80;4.28;;;;;;;;;;5115347;28;20268;-63
2023/10/10 13:40:37;;;;;;;4.65;4.15;;;;;;;;;;5115394;28;20214;-63
2023/10/10 13:43:08;;;;;;;4.78;4.15;;;;;;;;;;5114486;28;20590;-63
2023/10/10 13:45:37;;;;;;;4.60;4.20;;;;;;;;;;5113969;28;20222;-63
2023/10/10 13:48:13;;;;;;;4.60;4.20;;;;;;;;;;5114419;28;20235;-63
2023/10/10 13:50:44;;;;;;;4.53;4.13;;;;;;;;;;5114496;28;20250;-63
2023/10/10 13:53:13;;;;;;;5.18;3.80;;;;;;;;;;5114196;28;20268;-63
2023/10/10 13:55:41;;;;;;;4.60;4.20;;;;;;;;;;5115077;28;20513;-63
2023/10/10 13:58:12;;;;;;;4.43;4.03;;;;;;;;;;5114936;28;20720;-63
2023/10/10 14:00:41;;;;;;;5.28;4.20;;;;;;;;;;5114719;28;20211;-64
2023/10/10 14:03:14;;;;;;;6.82;4.40;;;;;;;;;;5114738;28;20302;-63
2023/10/10 14:06:00;;;;;;;5.75;3.80;;;;;;;;;;5114715;28;20222;-63
2023/10/10 14:08:30;;;;;;;4.53;4.07;;;;;;;;;;5114074;28;20402;-63
2023/10/10 14:10:59;;;;;;;4.80;4.40;;;;;;;;;;5114572;28;20256;-63
2023/10/10 14:13:27;;;;;;;5.07;4.30;;;;;;;;;;5114191;28;20285;-63
2023/10/10 14:15:58;;;;;;;4.50;4.10;;;;;;;;;;5114519;28;20202;-63
2023/10/10 14:18:31;;;;;;;4.78;4.00;;;;;;;;;;5114177;28;20582;-63
2023/10/10 14:21:02;;;;;;;4.60;4.20;;;;;;;;;;5113785;28;20210;-63
2023/10/10 14:23:35;;;;;;;5.72;4.13;;;;;;;;;;5113787;28;20203;-63
2023/10/10 14:26:13;;;;;;;4.57;3.95;;;;;;;;;;5113089;28;20229;-64
2023/10/10 14:28:41;;;;;;;3.85;3.55;;;;;;;;;;5113257;28;20194;-62
2023/10/10 14:31:12;;;;;;;4.88;4.00;;;;;;;;;;5113705;28;20203;-64
2023/10/10 14:33:42;;;;;;;4.45;4.05;;;;;;;;;;5114560;28;20232;-64
2023/10/10 14:36:12;;;;;;;4.57;4.07;;;;;;;;;;5114256;28;20191;-64
2023/10/10 14:38:44;;;;;;;4.47;3.80;;;;;;;;;;5114048;28;20233;-64
2023/10/10 14:41:12;;;;;;;4.55;3.83;;;;;;;;;;5113777;28;20205;-64
2023/10/10 14:43:39;;;;;;;4.60;4.05;;;;;;;;;;5114291;28;20198;-62
2023/10/10 14:46:11;;;;;;;4.35;3.65;;;;;;;;;;5115405;28;20231;-64
2023/10/10 14:48:39;;;;;;;4.38;3.97;;;;;;;;;;5134253;28;20213;-63
2023/10/10 14:51:08;;;;;;;4.30;3.80;;;;;;;;;;5135060;28;20198;-63
2023/10/10 14:53:35;;;;;;;4.22;3.83;;;;;;;;;;5135651;28;20210;-64
2023/10/10 14:56:05;;;;;;;5.30;3.88;;;;;;;;;;5135218;28;20211;-62
2023/10/10 14:58:35;;;;;;;3.88;3.47;;;;;;;;;;5135088;28;20199;-65
2023/10/10 15:01:03;;;;;;;5.38;4.03;;;;;;;;;;5134510;28;20234;-63
2023/10/10 15:03:40;;;;;;;4.88;3.80;;;;;;;;;;5134955;28;20277;-63
2023/10/10 15:06:10;;;;;;;3.67;3.33;;;;;;;;;;5134755;28;20253;-63
2023/10/10 15:08:43;;;;;;;4.35;3.80;;;;;;;;;;5135745;28;20203;-64
2023/10/10 15:11:12;;;;;;;4.45;3.58;;;;;;;;;;5135607;28;20202;-63
2023/10/10 15:13:41;;;;;;;4.10;3.67;;;;;;;;;;5134054;28;20206;-63
2023/10/10 15:16:11;;;;;;;4.47;4.00;;;;;;;;;;5134642;28;20202;-64
2023/10/10 15:18:40;;;;;;;3.85;3.50;;;;;;;;;;5134902;28;20255;-66
2023/10/10 15:21:10;;;;;;;4.35;3.45;;;;;;;;;;5133992;27;20633;-64
2023/10/10 15:23:37;;;;;;;3.88;3.40;;;;;;;;;;5133813;27;20271;-64
2023/10/10 15:26:11;;;;;;;5.35;3.78;;;;;;;;;;5134544;28;20313;-64
2023/10/10 15:28:40;;;;;;;4.25;3.85;;;;;;;;;;5133937;27;20248;-64
2023/10/10 15:31:08;;;;;;;4.32;3.50;;;;;;;;;;5137741;27;20198;-65
2023/10/10 15:33:36;;;;;;;4.47;3.55;;;;;;;;;;5138821;27;20194;-65
2023/10/10 15:36:06;;;;;;;4.75;3.65;;;;;;;;;;5137329;27;20323;-64
2023/10/10 15:38:36;;;;;;;4.03;3.60;;;;;;;;;;5136904;27;20712;-65
2023/10/10 15:41:17;;;;;;;3.72;3.40;;;;;;;;;;5137407;27;20637;-65
2023/10/10 15:43:46;;;;;;;3.70;3.30;;;;;;;;;;5136747;27;20222;-65
2023/10/10 15:46:15;;;;;;;4.00;3.60;;;;;;;;;;5138181;27;20258;-65
2023/10/10 15:48:48;;;;;;;3.70;3.33;;;;;;;;;;5138140;27;20202;-64
2023/10/10 15:51:16;;;;;;;4.47;3.22;;;;;;;;;;5138429;27;20293;-64
2023/10/10 15:53:45;;;;;;;3.50;3.20;;;;;;;;;;5138488;27;20197;-64
2023/10/10 15:56:16;;;;;;;3.92;3.20;;;;;;;;;;5137276;27;20194;-65
2023/10/10 15:58:49;;;;;;;3.78;3.35;;;;;;;;;;5137308;27;20625;-65
2023/10/10 16:01:21;;;;;;;3.97;3.45;;;;;;;;;;5137804;27;20242;-64
2023/10/10 16:03:49;;;;;;;5.97;3.72;;;;;;;;;;5137571;27;20239;-64
2023/10/10 16:06:19;;;;;;;4.25;3.50;;;;;;;;;;5137463;27;20710;-64
2023/10/10 16:08:49;;;;;;;3.72;3.33;;;;;;;;;;5137547;27;20549;-64
2023/10/10 16:11:17;;;;;;;3.40;3.10;;;;;;;;;;5136843;27;20209;-64
2023/10/10 16:13:46;;;;;;;4.50;3.30;;;;;;;;;;5137523;27;20630;-65
2023/10/10 16:16:14;;;;;;;3.50;3.20;;;;;;;;;;5138391;27;20299;-65
2023/10/10 16:18:45;;;;;;;4.03;3.47;;;;;;;;;;5137901;27;20294;-65
2023/10/10 16:21:13;;;;;;;3.78;3.20;;;;;;;;;;5137576;27;20674;-64
2023/10/10 16:23:43;;;;;;;4.53;3.53;;;;;;;;;;5137188;27;20206;-65
2023/10/10 16:26:14;;;;;;;3.42;3.13;;;;;;;;;;5136823;27;20218;-65
2023/10/10 16:28:42;;;;;;;4.03;3.50;;;;;;;;;;5137306;27;20604;-65
2023/10/10 16:31:11;;;;;;;3.40;3.10;;;;;;;;;;5137282;27;20213;-65
2023/10/10 16:33:40;;;;;;;3.75;3.10;;;;;;;;;;5137593;27;20203;-65
2023/10/10 16:36:09;;;;;;;4.10;3.70;;;;;;;;;;5137120;27;20198;-65
2023/10/10 16:38:38;;;;;;;3.47;3.17;;;;;;;;;;5136926;27;20267;-65
2023/10/10 16:41:07;;;;;;;3.60;3.30;;;;;;;;;;5137352;27;20210;-64
2023/10/10 16:43:38;;;;;;;4.38;3.35;;;;;;;;;;5136998;27;20198;-65
2023/10/10 16:46:08;;;;;;;3.42;3.13;;;;;;;;;;5137084;27;20609;-64
2023/10/10 16:48:38;;;;;;;4.45;3.20;;;;;;;;;;5137229;27;20312;-64
2023/10/10 16:51:08;;;;;;;3.95;3.50;;;;;;;;;;5137486;27;20210;-64
2023/10/10 16:53:39;;;;;;;4.20;3.50;;;;;;;;;;5137117;27;20212;-65
2023/10/10 16:56:07;;;;;;;3.90;3.05;;;;;;;;;;5136731;27;20497;-64
2023/10/10 16:58:40;;;;;;;3.72;3.30;;;;;;;;;;5136895;27;20237;-64
2023/10/10 17:01:12;;;;;;;4.30;3.33;;;;;;;;;;5136262;27;20210;-64
2023/10/10 17:03:39;;;;;;;3.75;3.40;;;;;;;;;;5137244;27;20210;-65
2023/10/10 17:06:07;;;;;;;4.20;3.28;;;;;;;;;;5136283;27;20287;-65
2023/10/10 17:08:36;;;;;;;3.65;3.35;;;;;;;;;;5136996;27;20565;-64
2023/10/10 17:11:06;;;;;;;4.78;3.60;;;;;;;;;;5136415;27;20774;-64
2023/10/10 17:13:39;;;;;;;3.35;3.05;;;;;;;;;;5136349;27;20285;-64